sensor_id;sensor_type;location;lat;lon;timestamp;P1;durP1;ratioP1;P2;durP2;ratioP2
15629;SDS011;7914;50.842;0.166;2022-12-18T00:02:00;2.67;;;2.57;;
15629;SDS011;7914;50.842;0.166;2022-12-18T00:04:26;2.47;;;2.37;;
15629;SDS011;7914;50.842;0.166;2022-12-18T00:06:52;2.50;;;2.40;;
15629;SDS011;7914;50.842;0.166;2022-12-18T00:09:19;2.33;;;2.23;;
15629;SDS011;7914;50.842;0.166;2022-12-18T00:11:44;2.20;;;2.10;;
15629;SDS011;7914;50.842;0.166;2022-12-18T00:14:11;2.50;;;2.40;;
15629;SDS011;7914;50.842;0.166;2022-12-18T00:16:38;2.70;;;2.60;;
15629;SDS011;7914;50.842;0.166;2022-12-18T00:19:04;2.60;;;2.50;;
15629;SDS011;7914;50.842;0.166;2022-12-18T00:21:30;2.40;;;2.30;;
15629;SDS011;7914;50.842;0.166;2022-12-18T00:23:57;2.50;;;2.40;;
15629;SDS011;7914;50.842;0.166;2022-12-18T00:26:25;2.67;;;2.57;;
15629;SDS011;7914;50.842;0.166;2022-12-18T00:28:52;2.70;;;2.60;;
15629;SDS011;7914;50.842;0.166;2022-12-18T00:31:19;2.40;;;2.30;;
15629;SDS011;7914;50.842;0.166;2022-12-18T00:33:47;2.30;;;2.20;;
15629;SDS011;7914;50.842;0.166;2022-12-18T00:36:14;2.60;;;2.50;;
15629;SDS011;7914;50.842;0.166;2022-12-18T00:38:45;2.70;;;2.60;;
15629;SDS011;7914;50.842;0.166;2022-12-18T00:41:11;2.70;;;2.60;;
15629;SDS011;7914;50.842;0.166;2022-12-18T00:43:39;2.73;;;2.63;;
15629;SDS011;7914;50.842;0.166;2022-12-18T00:46:05;2.60;;;2.50;;
15629;SDS011;7914;50.842;0.166;2022-12-18T00:48:31;2.60;;;2.50;;
15629;SDS011;7914;50.842;0.166;2022-12-18T00:50:57;2.40;;;2.30;;
15629;SDS011;7914;50.842;0.166;2022-12-18T00:53:22;2.53;;;2.43;;
15629;SDS011;7914;50.842;0.166;2022-12-18T00:55:48;2.50;;;2.40;;
15629;SDS011;7914;50.842;0.166;2022-12-18T00:58:14;2.20;;;2.10;;
15629;SDS011;7914;50.842;0.166;2022-12-18T01:00:41;2.40;;;2.30;;
15629;SDS011;7914;50.842;0.166;2022-12-18T01:03:07;2.37;;;2.27;;
15629;SDS011;7914;50.842;0.166;2022-12-18T01:05:38;2.10;;;2.00;;
15629;SDS011;7914;50.842;0.166;2022-12-18T01:08:05;2.30;;;2.20;;
15629;SDS011;7914;50.842;0.166;2022-12-18T01:10:30;2.10;;;2.00;;
15629;SDS011;7914;50.842;0.166;2022-12-18T01:12:56;2.30;;;2.20;;
15629;SDS011;7914;50.842;0.166;2022-12-18T01:15:21;2.30;;;2.20;;
15629;SDS011;7914;50.842;0.166;2022-12-18T01:17:47;2.20;;;2.10;;
15629;SDS011;7914;50.842;0.166;2022-12-18T01:20:13;2.00;;;1.90;;
15629;SDS011;7914;50.842;0.166;2022-12-18T01:22:39;2.10;;;2.00;;
15629;SDS011;7914;50.842;0.166;2022-12-18T01:25:05;2.33;;;2.23;;
15629;SDS011;7914;50.842;0.166;2022-12-18T01:27:31;2.40;;;2.30;;
15629;SDS011;7914;50.842;0.166;2022-12-18T01:29:58;2.10;;;2.00;;
15629;SDS011;7914;50.842;0.166;2022-12-18T01:32:24;2.00;;;1.90;;
15629;SDS011;7914;50.842;0.166;2022-12-18T01:34:49;2.17;;;2.07;;
15629;SDS011;7914;50.842;0.166;2022-12-18T01:37:15;2.10;;;2.00;;
15629;SDS011;7914;50.842;0.166;2022-12-18T01:39:40;2.10;;;2.00;;
15629;SDS011;7914;50.842;0.166;2022-12-18T01:42:11;1.80;;;1.80;;
15629;SDS011;7914;50.842;0.166;2022-12-18T01:47:35;1.70;;;1.70;;
15629;SDS011;7914;50.842;0.166;2022-12-18T01:50:07;1.70;;;1.70;;
15629;SDS011;7914;50.842;0.166;2022-12-18T01:52:41;1.67;;;1.67;;
15629;SDS011;7914;50.842;0.166;2022-12-18T01:55:11;1.60;;;1.60;;
15629;SDS011;7914;50.842;0.166;2022-12-18T01:57:39;1.30;;;1.30;;
15629;SDS011;7914;50.842;0.166;2022-12-18T02:00:13;1.27;;;1.27;;
15629;SDS011;7914;50.842;0.166;2022-12-18T02:02:41;1.57;;;1.57;;
15629;SDS011;7914;50.842;0.166;2022-12-18T02:05:09;1.40;;;1.40;;
15629;SDS011;7914;50.842;0.166;2022-12-18T02:07:49;1.40;;;1.40;;
15629;SDS011;7914;50.842;0.166;2022-12-18T02:13:20;1.20;;;1.20;;
15629;SDS011;7914;50.842;0.166;2022-12-18T02:16:03;1.40;;;1.40;;
15629;SDS011;7914;50.842;0.166;2022-12-18T02:18:50;1.60;;;1.60;;
15629;SDS011;7914;50.842;0.166;2022-12-18T02:23:56;1.70;;;1.70;;
15629;SDS011;7914;50.842;0.166;2022-12-18T02:26:37;1.70;;;1.70;;
15629;SDS011;7914;50.842;0.166;2022-12-18T02:29:18;1.50;;;1.50;;
15629;SDS011;7914;50.842;0.166;2022-12-18T02:31:53;1.50;;;1.50;;
15629;SDS011;7914;50.842;0.166;2022-12-18T02:34:28;1.50;;;1.50;;
15629;SDS011;7914;50.842;0.166;2022-12-18T02:36:57;1.30;;;1.30;;
15629;SDS011;7914;50.842;0.166;2022-12-18T02:39:26;1.40;;;1.40;;
15629;SDS011;7914;50.842;0.166;2022-12-18T02:41:54;1.37;;;1.37;;
15629;SDS011;7914;50.842;0.166;2022-12-18T02:44:20;1.50;;;1.50;;
15629;SDS011;7914;50.842;0.166;2022-12-18T02:46:49;1.50;;;1.50;;
15629;SDS011;7914;50.842;0.166;2022-12-18T03:05:33;1.47;;;1.47;;
15629;SDS011;7914;50.842;0.166;2022-12-18T03:08:06;1.40;;;1.40;;
15629;SDS011;7914;50.842;0.166;2022-12-18T03:10:44;1.50;;;1.50;;
15629;SDS011;7914;50.842;0.166;2022-12-18T03:13:18;1.30;;;1.30;;
15629;SDS011;7914;50.842;0.166;2022-12-18T03:15:50;1.30;;;1.30;;
15629;SDS011;7914;50.842;0.166;2022-12-18T03:18:21;1.30;;;1.30;;
15629;SDS011;7914;50.842;0.166;2022-12-18T03:20:55;1.27;;;1.27;;
15629;SDS011;7914;50.842;0.166;2022-12-18T03:23:27;1.50;;;1.50;;
15629;SDS011;7914;50.842;0.166;2022-12-18T03:25:57;1.27;;;1.27;;
15629;SDS011;7914;50.842;0.166;2022-12-18T03:28:25;1.10;;;1.10;;
15629;SDS011;7914;50.842;0.166;2022-12-18T03:30:55;1.17;;;1.17;;
15629;SDS011;7914;50.842;0.166;2022-12-18T03:34:09;1.20;;;1.20;;
15629;SDS011;7914;50.842;0.166;2022-12-18T03:36:16;1.20;;;1.20;;
15629;SDS011;7914;50.842;0.166;2022-12-18T03:38:42;1.20;;;1.20;;
15629;SDS011;7914;50.842;0.166;2022-12-18T03:43:57;1.27;;;1.27;;
15629;SDS011;7914;50.842;0.166;2022-12-18T03:46:35;1.20;;;1.20;;
15629;SDS011;7914;50.842;0.166;2022-12-18T03:49:11;1.30;;;1.30;;
15629;SDS011;7914;50.842;0.166;2022-12-18T03:54:19;1.30;;;1.30;;
15629;SDS011;7914;50.842;0.166;2022-12-18T03:56:46;1.10;;;1.10;;
15629;SDS011;7914;50.842;0.166;2022-12-18T03:59:16;0.83;;;0.83;;
15629;SDS011;7914;50.842;0.166;2022-12-18T04:01:46;1.00;;;1.00;;
15629;SDS011;7914;50.842;0.166;2022-12-18T04:04:14;1.20;;;1.20;;
15629;SDS011;7914;50.842;0.166;2022-12-18T04:06:41;1.03;;;1.03;;
15629;SDS011;7914;50.842;0.166;2022-12-18T04:09:08;1.03;;;1.03;;
15629;SDS011;7914;50.842;0.166;2022-12-18T04:11:35;1.10;;;1.10;;
15629;SDS011;7914;50.842;0.166;2022-12-18T04:14:00;1.10;;;1.10;;
15629;SDS011;7914;50.842;0.166;2022-12-18T04:16:26;1.00;;;1.00;;
15629;SDS011;7914;50.842;0.166;2022-12-18T04:18:52;1.10;;;1.10;;
15629;SDS011;7914;50.842;0.166;2022-12-18T04:21:19;1.00;;;1.00;;
15629;SDS011;7914;50.842;0.166;2022-12-18T04:23:45;1.00;;;1.00;;
15629;SDS011;7914;50.842;0.166;2022-12-18T04:26:11;0.97;;;0.97;;
15629;SDS011;7914;50.842;0.166;2022-12-18T04:28:36;0.97;;;0.97;;
15629;SDS011;7914;50.842;0.166;2022-12-18T04:31:02;1.00;;;1.00;;
15629;SDS011;7914;50.842;0.166;2022-12-18T04:33:28;1.00;;;1.00;;
15629;SDS011;7914;50.842;0.166;2022-12-18T04:35:53;1.00;;;1.00;;
15629;SDS011;7914;50.842;0.166;2022-12-18T04:38:19;0.90;;;0.90;;
15629;SDS011;7914;50.842;0.166;2022-12-18T04:40:45;0.90;;;0.90;;
15629;SDS011;7914;50.842;0.166;2022-12-18T04:43:10;0.80;;;0.80;;
15629;SDS011;7914;50.842;0.166;2022-12-18T04:45:36;0.80;;;0.80;;
15629;SDS011;7914;50.842;0.166;2022-12-18T04:48:02;0.90;;;0.90;;
15629;SDS011;7914;50.842;0.166;2022-12-18T04:50:29;0.90;;;0.90;;
15629;SDS011;7914;50.842;0.166;2022-12-18T04:52:55;0.80;;;0.80;;
15629;SDS011;7914;50.842;0.166;2022-12-18T04:55:24;0.73;;;0.73;;
15629;SDS011;7914;50.842;0.166;2022-12-18T04:57:50;0.80;;;0.80;;
15629;SDS011;7914;50.842;0.166;2022-12-18T05:00:16;0.80;;;0.80;;
15629;SDS011;7914;50.842;0.166;2022-12-18T05:02:42;0.70;;;0.70;;
15629;SDS011;7914;50.842;0.166;2022-12-18T05:05:07;0.80;;;0.80;;
15629;SDS011;7914;50.842;0.166;2022-12-18T05:07:33;0.80;;;0.80;;
15629;SDS011;7914;50.842;0.166;2022-12-18T05:09:59;0.80;;;0.80;;
15629;SDS011;7914;50.842;0.166;2022-12-18T05:12:25;0.90;;;0.90;;
15629;SDS011;7914;50.842;0.166;2022-12-18T05:14:50;0.80;;;0.80;;
15629;SDS011;7914;50.842;0.166;2022-12-18T05:17:16;0.80;;;0.80;;
15629;SDS011;7914;50.842;0.166;2022-12-18T05:19:42;0.80;;;0.80;;
15629;SDS011;7914;50.842;0.166;2022-12-18T05:22:08;0.80;;;0.80;;
15629;SDS011;7914;50.842;0.166;2022-12-18T05:24:33;0.80;;;0.80;;
15629;SDS011;7914;50.842;0.166;2022-12-18T05:26:59;0.70;;;0.70;;
15629;SDS011;7914;50.842;0.166;2022-12-18T05:29:25;0.77;;;0.77;;
15629;SDS011;7914;50.842;0.166;2022-12-18T05:31:50;0.70;;;0.70;;
15629;SDS011;7914;50.842;0.166;2022-12-18T05:34:16;0.70;;;0.70;;
15629;SDS011;7914;50.842;0.166;2022-12-18T05:36:42;0.70;;;0.70;;
15629;SDS011;7914;50.842;0.166;2022-12-18T05:39:07;0.70;;;0.70;;
15629;SDS011;7914;50.842;0.166;2022-12-18T05:41:33;0.70;;;0.70;;
15629;SDS011;7914;50.842;0.166;2022-12-18T05:43:59;0.60;;;0.60;;
15629;SDS011;7914;50.842;0.166;2022-12-18T05:46:25;0.70;;;0.70;;
15629;SDS011;7914;50.842;0.166;2022-12-18T05:48:51;0.90;;;0.90;;
15629;SDS011;7914;50.842;0.166;2022-12-18T05:51:17;0.80;;;0.80;;
15629;SDS011;7914;50.842;0.166;2022-12-18T05:53:44;0.70;;;0.70;;
15629;SDS011;7914;50.842;0.166;2022-12-18T05:56:15;0.80;;;0.80;;
15629;SDS011;7914;50.842;0.166;2022-12-18T05:58:42;0.70;;;0.70;;
15629;SDS011;7914;50.842;0.166;2022-12-18T06:01:09;0.70;;;0.70;;
15629;SDS011;7914;50.842;0.166;2022-12-18T06:03:37;0.73;;;0.73;;
15629;SDS011;7914;50.842;0.166;2022-12-18T06:06:03;0.70;;;0.70;;
15629;SDS011;7914;50.842;0.166;2022-12-18T06:08:29;0.60;;;0.60;;
15629;SDS011;7914;50.842;0.166;2022-12-18T06:10:55;0.60;;;0.60;;
15629;SDS011;7914;50.842;0.166;2022-12-18T06:13:21;0.70;;;0.70;;
15629;SDS011;7914;50.842;0.166;2022-12-18T06:15:47;0.70;;;0.70;;
15629;SDS011;7914;50.842;0.166;2022-12-18T06:18:13;0.70;;;0.70;;
15629;SDS011;7914;50.842;0.166;2022-12-18T06:20:38;0.70;;;0.70;;
15629;SDS011;7914;50.842;0.166;2022-12-18T06:23:06;0.67;;;0.67;;
15629;SDS011;7914;50.842;0.166;2022-12-18T06:25:32;0.70;;;0.70;;
15629;SDS011;7914;50.842;0.166;2022-12-18T06:27:58;0.60;;;0.60;;
15629;SDS011;7914;50.842;0.166;2022-12-18T06:30:24;0.70;;;0.70;;
15629;SDS011;7914;50.842;0.166;2022-12-18T06:32:49;0.90;;;0.90;;
15629;SDS011;7914;50.842;0.166;2022-12-18T06:35:15;0.73;;;0.73;;
15629;SDS011;7914;50.842;0.166;2022-12-18T06:37:41;0.77;;;0.77;;
15629;SDS011;7914;50.842;0.166;2022-12-18T06:40:07;0.63;;;0.63;;
15629;SDS011;7914;50.842;0.166;2022-12-18T06:42:33;0.70;;;0.70;;
15629;SDS011;7914;50.842;0.166;2022-12-18T06:44:58;0.80;;;0.80;;
15629;SDS011;7914;50.842;0.166;2022-12-18T06:47:24;0.80;;;0.80;;
15629;SDS011;7914;50.842;0.166;2022-12-18T06:49:50;0.53;;;0.53;;
15629;SDS011;7914;50.842;0.166;2022-12-18T06:52:15;0.60;;;0.60;;
15629;SDS011;7914;50.842;0.166;2022-12-18T06:54:41;0.70;;;0.70;;
15629;SDS011;7914;50.842;0.166;2022-12-18T06:57:06;0.73;;;0.73;;
15629;SDS011;7914;50.842;0.166;2022-12-18T06:59:32;0.77;;;0.77;;
15629;SDS011;7914;50.842;0.166;2022-12-18T07:01:58;0.60;;;0.60;;
15629;SDS011;7914;50.842;0.166;2022-12-18T07:04:27;0.70;;;0.70;;
15629;SDS011;7914;50.842;0.166;2022-12-18T07:06:56;0.80;;;0.80;;
15629;SDS011;7914;50.842;0.166;2022-12-18T07:09:22;0.60;;;0.60;;
15629;SDS011;7914;50.842;0.166;2022-12-18T07:11:48;0.70;;;0.70;;
15629;SDS011;7914;50.842;0.166;2022-12-18T07:14:14;0.67;;;0.67;;
15629;SDS011;7914;50.842;0.166;2022-12-18T07:16:39;0.80;;;0.80;;
15629;SDS011;7914;50.842;0.166;2022-12-18T07:19:05;0.60;;;0.60;;
15629;SDS011;7914;50.842;0.166;2022-12-18T07:21:31;0.80;;;0.80;;
15629;SDS011;7914;50.842;0.166;2022-12-18T07:23:57;0.60;;;0.60;;
15629;SDS011;7914;50.842;0.166;2022-12-18T07:26:22;0.63;;;0.63;;
15629;SDS011;7914;50.842;0.166;2022-12-18T07:28:48;0.70;;;0.70;;
15629;SDS011;7914;50.842;0.166;2022-12-18T07:31:16;0.70;;;0.70;;
15629;SDS011;7914;50.842;0.166;2022-12-18T07:33:44;0.70;;;0.70;;
15629;SDS011;7914;50.842;0.166;2022-12-18T07:36:10;0.60;;;0.60;;
15629;SDS011;7914;50.842;0.166;2022-12-18T07:38:36;0.80;;;0.80;;
15629;SDS011;7914;50.842;0.166;2022-12-18T07:41:09;0.80;;;0.80;;
15629;SDS011;7914;50.842;0.166;2022-12-18T07:43:37;0.70;;;0.70;;
15629;SDS011;7914;50.842;0.166;2022-12-18T07:46:03;0.70;;;0.70;;
15629;SDS011;7914;50.842;0.166;2022-12-18T07:48:29;0.80;;;0.80;;
15629;SDS011;7914;50.842;0.166;2022-12-18T07:50:59;0.53;;;0.53;;
15629;SDS011;7914;50.842;0.166;2022-12-18T07:53:25;0.70;;;0.70;;
15629;SDS011;7914;50.842;0.166;2022-12-18T07:56:02;0.70;;;0.70;;
15629;SDS011;7914;50.842;0.166;2022-12-18T07:58:30;0.70;;;0.70;;
15629;SDS011;7914;50.842;0.166;2022-12-18T08:01:03;0.63;;;0.63;;
15629;SDS011;7914;50.842;0.166;2022-12-18T08:03:33;0.80;;;0.80;;
15629;SDS011;7914;50.842;0.166;2022-12-18T08:05:59;0.70;;;0.70;;
15629;SDS011;7914;50.842;0.166;2022-12-18T08:08:26;0.70;;;0.70;;
15629;SDS011;7914;50.842;0.166;2022-12-18T08:10:52;0.60;;;0.60;;
15629;SDS011;7914;50.842;0.166;2022-12-18T08:13:18;0.70;;;0.70;;
15629;SDS011;7914;50.842;0.166;2022-12-18T08:15:43;0.60;;;0.60;;
15629;SDS011;7914;50.842;0.166;2022-12-18T08:18:09;0.70;;;0.70;;
15629;SDS011;7914;50.842;0.166;2022-12-18T08:20:34;0.60;;;0.60;;
15629;SDS011;7914;50.842;0.166;2022-12-18T08:23:00;0.70;;;0.70;;
15629;SDS011;7914;50.842;0.166;2022-12-18T08:25:26;0.70;;;0.70;;
15629;SDS011;7914;50.842;0.166;2022-12-18T08:27:51;0.70;;;0.70;;
15629;SDS011;7914;50.842;0.166;2022-12-18T08:30:17;0.80;;;0.80;;
15629;SDS011;7914;50.842;0.166;2022-12-18T08:32:43;0.87;;;0.87;;
15629;SDS011;7914;50.842;0.166;2022-12-18T08:35:08;0.80;;;0.80;;
15629;SDS011;7914;50.842;0.166;2022-12-18T08:37:36;0.90;;;0.90;;
15629;SDS011;7914;50.842;0.166;2022-12-18T08:40:02;0.90;;;0.90;;
15629;SDS011;7914;50.842;0.166;2022-12-18T08:42:28;1.00;;;1.00;;
15629;SDS011;7914;50.842;0.166;2022-12-18T08:45:12;0.80;;;0.80;;
15629;SDS011;7914;50.842;0.166;2022-12-18T08:47:38;0.90;;;0.90;;
15629;SDS011;7914;50.842;0.166;2022-12-18T08:50:04;0.90;;;0.90;;
15629;SDS011;7914;50.842;0.166;2022-12-18T08:52:31;0.80;;;0.80;;
15629;SDS011;7914;50.842;0.166;2022-12-18T08:54:57;0.80;;;0.80;;
15629;SDS011;7914;50.842;0.166;2022-12-18T08:57:23;0.80;;;0.80;;
15629;SDS011;7914;50.842;0.166;2022-12-18T08:59:48;1.10;;;1.10;;
15629;SDS011;7914;50.842;0.166;2022-12-18T09:02:14;1.07;;;1.07;;
15629;SDS011;7914;50.842;0.166;2022-12-18T09:04:40;1.03;;;1.03;;
15629;SDS011;7914;50.842;0.166;2022-12-18T09:07:06;1.00;;;1.00;;
15629;SDS011;7914;50.842;0.166;2022-12-18T09:09:32;1.10;;;1.10;;
15629;SDS011;7914;50.842;0.166;2022-12-18T09:11:57;1.20;;;1.20;;
15629;SDS011;7914;50.842;0.166;2022-12-18T09:14:23;1.20;;;1.20;;
15629;SDS011;7914;50.842;0.166;2022-12-18T09:16:49;1.17;;;1.17;;
15629;SDS011;7914;50.842;0.166;2022-12-18T09:19:14;1.10;;;1.10;;
15629;SDS011;7914;50.842;0.166;2022-12-18T09:21:40;1.10;;;1.10;;
15629;SDS011;7914;50.842;0.166;2022-12-18T09:24:05;1.10;;;1.10;;
15629;SDS011;7914;50.842;0.166;2022-12-18T09:26:31;1.20;;;1.20;;
15629;SDS011;7914;50.842;0.166;2022-12-18T09:28:57;1.10;;;1.10;;
15629;SDS011;7914;50.842;0.166;2022-12-18T09:31:23;1.10;;;1.10;;
15629;SDS011;7914;50.842;0.166;2022-12-18T09:33:49;1.20;;;1.20;;
15629;SDS011;7914;50.842;0.166;2022-12-18T09:36:16;1.00;;;1.00;;
15629;SDS011;7914;50.842;0.166;2022-12-18T09:38:42;1.20;;;1.20;;
15629;SDS011;7914;50.842;0.166;2022-12-18T09:43:53;1.40;;;1.40;;
15629;SDS011;7914;50.842;0.166;2022-12-18T09:46:25;1.40;;;1.40;;
15629;SDS011;7914;50.842;0.166;2022-12-18T09:48:56;1.10;;;1.10;;
15629;SDS011;7914;50.842;0.166;2022-12-18T09:51:29;1.40;;;1.40;;
15629;SDS011;7914;50.842;0.166;2022-12-18T09:54:18;1.23;;;1.23;;
15629;SDS011;7914;50.842;0.166;2022-12-18T09:56:58;1.30;;;1.30;;
15629;SDS011;7914;50.842;0.166;2022-12-18T09:59:25;1.30;;;1.30;;
15629;SDS011;7914;50.842;0.166;2022-12-18T10:01:56;1.33;;;1.33;;
15629;SDS011;7914;50.842;0.166;2022-12-18T10:04:21;1.20;;;1.20;;
15629;SDS011;7914;50.842;0.166;2022-12-18T10:06:51;1.30;;;1.30;;
15629;SDS011;7914;50.842;0.166;2022-12-18T10:12:17;1.23;;;1.23;;
15629;SDS011;7914;50.842;0.166;2022-12-18T10:17:30;1.70;;;1.70;;
15629;SDS011;7914;50.842;0.166;2022-12-18T10:28:17;1.40;;;1.40;;
15629;SDS011;7914;50.842;0.166;2022-12-18T10:30:44;1.50;;;1.50;;
15629;SDS011;7914;50.842;0.166;2022-12-18T10:33:11;1.30;;;1.30;;
15629;SDS011;7914;50.842;0.166;2022-12-18T10:35:57;1.20;;;1.20;;
15629;SDS011;7914;50.842;0.166;2022-12-18T10:38:30;1.30;;;1.30;;
15629;SDS011;7914;50.842;0.166;2022-12-18T10:43:30;1.20;;;1.20;;
15629;SDS011;7914;50.842;0.166;2022-12-18T10:48:26;1.03;;;1.03;;
15629;SDS011;7914;50.842;0.166;2022-12-18T10:50:52;1.10;;;1.10;;
15629;SDS011;7914;50.842;0.166;2022-12-18T10:53:19;1.27;;;1.27;;
15629;SDS011;7914;50.842;0.166;2022-12-18T10:55:52;1.10;;;1.10;;
15629;SDS011;7914;50.842;0.166;2022-12-18T10:58:23;1.30;;;1.30;;
15629;SDS011;7914;50.842;0.166;2022-12-18T11:01:08;1.30;;;1.30;;
15629;SDS011;7914;50.842;0.166;2022-12-18T11:03:38;1.50;;;1.50;;
15629;SDS011;7914;50.842;0.166;2022-12-18T11:06:24;1.70;;;1.70;;
15629;SDS011;7914;50.842;0.166;2022-12-18T11:09:01;1.80;;;1.80;;
15629;SDS011;7914;50.842;0.166;2022-12-18T11:11:51;1.87;;;1.87;;
15629;SDS011;7914;50.842;0.166;2022-12-18T11:14:21;1.90;;;1.90;;
15629;SDS011;7914;50.842;0.166;2022-12-18T11:16:47;1.90;;;1.90;;
15629;SDS011;7914;50.842;0.166;2022-12-18T11:19:19;2.20;;;2.10;;
15629;SDS011;7914;50.842;0.166;2022-12-18T11:21:55;2.10;;;2.00;;
15629;SDS011;7914;50.842;0.166;2022-12-18T11:26:57;2.10;;;2.00;;
15629;SDS011;7914;50.842;0.166;2022-12-18T11:29:44;2.40;;;2.30;;
15629;SDS011;7914;50.842;0.166;2022-12-18T11:35:08;2.53;;;2.43;;
15629;SDS011;7914;50.842;0.166;2022-12-18T11:37:43;2.50;;;2.40;;
15629;SDS011;7914;50.842;0.166;2022-12-18T11:40:16;3.43;;;3.33;;
15629;SDS011;7914;50.842;0.166;2022-12-18T11:42:53;3.67;;;3.57;;
15629;SDS011;7914;50.842;0.166;2022-12-18T11:45:28;3.37;;;3.27;;
15629;SDS011;7914;50.842;0.166;2022-12-18T11:50:54;3.60;;;3.50;;
15629;SDS011;7914;50.842;0.166;2022-12-18T11:53:21;3.70;;;3.60;;
15629;SDS011;7914;50.842;0.166;2022-12-18T11:58:36;3.97;;;3.87;;
15629;SDS011;7914;50.842;0.166;2022-12-18T12:04:17;4.73;;;4.53;;
15629;SDS011;7914;50.842;0.166;2022-12-18T12:12:36;5.13;;;4.93;;
15629;SDS011;7914;50.842;0.166;2022-12-18T12:15:30;5.23;;;5.03;;
15629;SDS011;7914;50.842;0.166;2022-12-18T12:21:23;5.63;;;5.43;;
15629;SDS011;7914;50.842;0.166;2022-12-18T12:24:14;6.10;;;5.90;;
15629;SDS011;7914;50.842;0.166;2022-12-18T12:26:57;5.80;;;5.60;;
15629;SDS011;7914;50.842;0.166;2022-12-18T12:40:48;6.70;;;6.40;;
15629;SDS011;7914;50.842;0.166;2022-12-18T12:46:07;6.60;;;6.30;;
15629;SDS011;7914;50.842;0.166;2022-12-18T12:51:01;7.40;;;7.10;;
15629;SDS011;7914;50.842;0.166;2022-12-18T12:53:49;8.27;;;7.97;;
15629;SDS011;7914;50.842;0.166;2022-12-18T12:56:16;8.27;;;7.97;;
15629;SDS011;7914;50.842;0.166;2022-12-18T13:01:43;8.67;;;8.33;;
15629;SDS011;7914;50.842;0.166;2022-12-18T13:13:07;9.33;;;8.93;;
15629;SDS011;7914;50.842;0.166;2022-12-18T13:15:38;9.00;;;8.60;;
15629;SDS011;7914;50.842;0.166;2022-12-18T13:20:45;9.10;;;8.70;;
15629;SDS011;7914;50.842;0.166;2022-12-18T13:25:48;10.90;;;10.40;;
15629;SDS011;7914;50.842;0.166;2022-12-18T13:30:51;10.00;;;9.60;;
15629;SDS011;7914;50.842;0.166;2022-12-18T13:36:00;10.17;;;9.77;;
15629;SDS011;7914;50.842;0.166;2022-12-18T13:38:40;11.00;;;10.50;;
15629;SDS011;7914;50.842;0.166;2022-12-18T13:43:54;10.97;;;10.47;;
15629;SDS011;7914;50.842;0.166;2022-12-18T13:51:43;11.40;;;10.90;;
15629;SDS011;7914;50.842;0.166;2022-12-18T13:56:48;11.03;;;10.53;;
15629;SDS011;7914;50.842;0.166;2022-12-18T14:01:54;10.40;;;10.00;;
15629;SDS011;7914;50.842;0.166;2022-12-18T14:04:23;10.60;;;10.20;;
15629;SDS011;7914;50.842;0.166;2022-12-18T14:06:52;10.27;;;9.87;;
15629;SDS011;7914;50.842;0.166;2022-12-18T14:09:23;10.10;;;9.70;;
15629;SDS011;7914;50.842;0.166;2022-12-18T14:11:51;9.63;;;9.23;;
15629;SDS011;7914;50.842;0.166;2022-12-18T14:14:40;11.03;;;10.53;;
15629;SDS011;7914;50.842;0.166;2022-12-18T14:17:09;10.67;;;10.27;;
15629;SDS011;7914;50.842;0.166;2022-12-18T14:19:36;10.40;;;10.00;;
15629;SDS011;7914;50.842;0.166;2022-12-18T14:22:09;10.57;;;10.17;;
15629;SDS011;7914;50.842;0.166;2022-12-18T14:24:41;11.90;;;11.40;;
15629;SDS011;7914;50.842;0.166;2022-12-18T14:27:20;11.57;;;11.07;;
15629;SDS011;7914;50.842;0.166;2022-12-18T14:29:48;11.80;;;11.30;;
15629;SDS011;7914;50.842;0.166;2022-12-18T14:32:15;11.40;;;10.90;;
15629;SDS011;7914;50.842;0.166;2022-12-18T14:34:49;10.40;;;10.00;;
15629;SDS011;7914;50.842;0.166;2022-12-18T14:37:17;11.07;;;10.57;;
15629;SDS011;7914;50.842;0.166;2022-12-18T14:40:01;10.80;;;10.33;;
15629;SDS011;7914;50.842;0.166;2022-12-18T14:42:37;11.47;;;10.97;;
15629;SDS011;7914;50.842;0.166;2022-12-18T14:48:13;11.00;;;10.50;;
15629;SDS011;7914;50.842;0.166;2022-12-18T14:53:40;11.77;;;11.27;;
15629;SDS011;7914;50.842;0.166;2022-12-18T14:56:18;11.30;;;10.80;;
15629;SDS011;7914;50.842;0.166;2022-12-18T14:58:47;10.70;;;10.30;;
15629;SDS011;7914;50.842;0.166;2022-12-18T15:01:34;11.87;;;11.37;;
15629;SDS011;7914;50.842;0.166;2022-12-18T15:04:03;10.30;;;9.90;;
15629;SDS011;7914;50.842;0.166;2022-12-18T15:06:48;10.10;;;9.70;;
15629;SDS011;7914;50.842;0.166;2022-12-18T15:09:26;12.10;;;11.60;;
15629;SDS011;7914;50.842;0.166;2022-12-18T15:11:55;11.90;;;11.40;;
15629;SDS011;7914;50.842;0.166;2022-12-18T15:14:40;11.60;;;11.10;;
15629;SDS011;7914;50.842;0.166;2022-12-18T15:17:14;12.13;;;11.63;;
15629;SDS011;7914;50.842;0.166;2022-12-18T15:19:48;12.50;;;12.00;;
15629;SDS011;7914;50.842;0.166;2022-12-18T15:22:30;12.27;;;11.77;;
15629;SDS011;7914;50.842;0.166;2022-12-18T15:24:59;12.20;;;11.70;;
15629;SDS011;7914;50.842;0.166;2022-12-18T15:27:30;12.70;;;12.20;;
15629;SDS011;7914;50.842;0.166;2022-12-18T15:30:02;12.23;;;11.73;;
15629;SDS011;7914;50.842;0.166;2022-12-18T15:32:42;12.37;;;11.87;;
15629;SDS011;7914;50.842;0.166;2022-12-18T15:37:33;12.93;;;12.33;;
15629;SDS011;7914;50.842;0.166;2022-12-18T15:39:59;12.57;;;12.07;;
15629;SDS011;7914;50.842;0.166;2022-12-18T15:42:24;12.60;;;12.10;;
15629;SDS011;7914;50.842;0.166;2022-12-18T15:45:12;12.93;;;12.33;;
15629;SDS011;7914;50.842;0.166;2022-12-18T15:47:38;13.07;;;12.47;;
15629;SDS011;7914;50.842;0.166;2022-12-18T15:50:04;11.97;;;11.47;;
15629;SDS011;7914;50.842;0.166;2022-12-18T15:52:31;11.70;;;11.20;;
15629;SDS011;7914;50.842;0.166;2022-12-18T15:55:08;11.60;;;11.10;;
15629;SDS011;7914;50.842;0.166;2022-12-18T15:57:57;11.40;;;10.90;;
15629;SDS011;7914;50.842;0.166;2022-12-18T16:00:23;12.10;;;11.60;;
15629;SDS011;7914;50.842;0.166;2022-12-18T16:02:48;12.50;;;12.00;;
15629;SDS011;7914;50.842;0.166;2022-12-18T16:05:15;11.70;;;11.20;;
15629;SDS011;7914;50.842;0.166;2022-12-18T16:07:42;12.30;;;11.80;;
15629;SDS011;7914;50.842;0.166;2022-12-18T16:10:08;12.07;;;11.57;;
15629;SDS011;7914;50.842;0.166;2022-12-18T16:12:34;12.43;;;11.93;;
15629;SDS011;7914;50.842;0.166;2022-12-18T16:15:00;12.90;;;12.30;;
15629;SDS011;7914;50.842;0.166;2022-12-18T16:17:27;12.30;;;11.80;;
15629;SDS011;7914;50.842;0.166;2022-12-18T16:19:52;12.50;;;12.00;;
15629;SDS011;7914;50.842;0.166;2022-12-18T16:22:20;11.90;;;11.40;;
15629;SDS011;7914;50.842;0.166;2022-12-18T16:24:48;12.10;;;11.60;;
15629;SDS011;7914;50.842;0.166;2022-12-18T16:27:15;12.23;;;11.73;;
15629;SDS011;7914;50.842;0.166;2022-12-18T16:29:40;11.40;;;10.90;;
15629;SDS011;7914;50.842;0.166;2022-12-18T16:32:06;11.80;;;11.30;;
15629;SDS011;7914;50.842;0.166;2022-12-18T16:34:40;11.90;;;11.40;;
15629;SDS011;7914;50.842;0.166;2022-12-18T16:37:08;11.67;;;11.17;;
15629;SDS011;7914;50.842;0.166;2022-12-18T16:39:35;11.90;;;11.40;;
15629;SDS011;7914;50.842;0.166;2022-12-18T16:42:06;12.17;;;11.67;;
15629;SDS011;7914;50.842;0.166;2022-12-18T16:44:37;12.30;;;11.80;;
15629;SDS011;7914;50.842;0.166;2022-12-18T16:47:03;12.17;;;11.67;;
15629;SDS011;7914;50.842;0.166;2022-12-18T16:49:29;12.83;;;12.23;;
15629;SDS011;7914;50.842;0.166;2022-12-18T16:51:54;12.23;;;11.73;;
15629;SDS011;7914;50.842;0.166;2022-12-18T16:54:20;12.60;;;12.10;;
15629;SDS011;7914;50.842;0.166;2022-12-18T16:56:46;12.47;;;11.97;;
15629;SDS011;7914;50.842;0.166;2022-12-18T16:59:13;12.43;;;11.93;;
15629;SDS011;7914;50.842;0.166;2022-12-18T17:01:39;12.80;;;12.20;;
15629;SDS011;7914;50.842;0.166;2022-12-18T17:04:06;12.77;;;12.17;;
15629;SDS011;7914;50.842;0.166;2022-12-18T17:06:33;12.67;;;12.13;;
15629;SDS011;7914;50.842;0.166;2022-12-18T17:09:04;12.17;;;11.67;;
15629;SDS011;7914;50.842;0.166;2022-12-18T17:11:33;12.17;;;11.67;;
15629;SDS011;7914;50.842;0.166;2022-12-18T17:14:04;12.13;;;11.63;;
15629;SDS011;7914;50.842;0.166;2022-12-18T17:16:32;11.10;;;10.60;;
15629;SDS011;7914;50.842;0.166;2022-12-18T17:18:58;11.70;;;11.20;;
15629;SDS011;7914;50.842;0.166;2022-12-18T17:21:24;11.43;;;10.93;;
15629;SDS011;7914;50.842;0.166;2022-12-18T17:23:49;10.50;;;10.10;;